sensor_id;sensor_type;location;lat;lon;timestamp;P1;durP1;ratioP1;P2;durP2;ratioP2
42632;SDS011;28261;53.304;-6.284;2023-01-31T00:01:08;7.38;;;1.75;;
42632;SDS011;28261;53.304;-6.284;2023-01-31T00:03:13;5.68;;;1.75;;
42632;SDS011;28261;53.304;-6.284;2023-01-31T00:05:17;10.30;;;1.67;;
42632;SDS011;28261;53.304;-6.284;2023-01-31T00:07:22;8.05;;;1.50;;
42632;SDS011;28261;53.304;-6.284;2023-01-31T00:09:27;4.80;;;2.15;;
42632;SDS011;28261;53.304;-6.284;2023-01-31T00:11:31;6.68;;;1.42;;
42632;SDS011;28261;53.304;-6.284;2023-01-31T00:13:36;7.50;;;1.85;;
42632;SDS011;28261;53.304;-6.284;2023-01-31T00:15:40;3.67;;;1.02;;
42632;SDS011;28261;53.304;-6.284;2023-01-31T00:17:44;6.28;;;1.40;;
42632;SDS011;28261;53.304;-6.284;2023-01-31T00:19:48;7.93;;;1.35;;
42632;SDS011;28261;53.304;-6.284;2023-01-31T00:21:52;11.23;;;1.50;;
42632;SDS011;28261;53.304;-6.284;2023-01-31T00:23:56;6.63;;;1.70;;
42632;SDS011;28261;53.304;-6.284;2023-01-31T00:28:14;2.53;;;1.20;;
42632;SDS011;28261;53.304;-6.284;2023-01-31T00:30:18;3.65;;;1.17;;
42632;SDS011;28261;53.304;-6.284;2023-01-31T00:32:22;6.35;;;1.10;;
42632;SDS011;28261;53.304;-6.284;2023-01-31T00:34:29;5.28;;;1.27;;
42632;SDS011;28261;53.304;-6.284;2023-01-31T00:36:33;5.30;;;1.55;;
42632;SDS011;28261;53.304;-6.284;2023-01-31T00:38:38;5.60;;;1.25;;
42632;SDS011;28261;53.304;-6.284;2023-01-31T00:40:50;6.43;;;1.50;;
42632;SDS011;28261;53.304;-6.284;2023-01-31T00:44:59;3.13;;;1.40;;
42632;SDS011;28261;53.304;-6.284;2023-01-31T00:47:03;4.20;;;1.25;;
42632;SDS011;28261;53.304;-6.284;2023-01-31T00:49:08;5.78;;;1.38;;
42632;SDS011;28261;53.304;-6.284;2023-01-31T00:51:12;5.22;;;1.50;;
42632;SDS011;28261;53.304;-6.284;2023-01-31T00:53:16;4.15;;;1.35;;
42632;SDS011;28261;53.304;-6.284;2023-01-31T00:55:24;4.53;;;1.48;;
42632;SDS011;28261;53.304;-6.284;2023-01-31T00:57:27;5.88;;;1.40;;
42632;SDS011;28261;53.304;-6.284;2023-01-31T00:59:32;3.50;;;1.27;;
42632;SDS011;28261;53.304;-6.284;2023-01-31T01:01:36;6.13;;;1.52;;
42632;SDS011;28261;53.304;-6.284;2023-01-31T01:03:40;2.83;;;1.05;;
42632;SDS011;28261;53.304;-6.284;2023-01-31T01:07:49;3.75;;;1.70;;
42632;SDS011;28261;53.304;-6.284;2023-01-31T01:09:52;3.65;;;1.50;;
42632;SDS011;28261;53.304;-6.284;2023-01-31T01:11:56;4.57;;;1.45;;
42632;SDS011;28261;53.304;-6.284;2023-01-31T01:14:00;7.93;;;1.80;;
42632;SDS011;28261;53.304;-6.284;2023-01-31T01:16:06;6.03;;;1.30;;
42632;SDS011;28261;53.304;-6.284;2023-01-31T01:18:12;5.03;;;1.30;;
42632;SDS011;28261;53.304;-6.284;2023-01-31T01:20:16;5.50;;;1.33;;
42632;SDS011;28261;53.304;-6.284;2023-01-31T01:22:20;3.30;;;1.20;;
42632;SDS011;28261;53.304;-6.284;2023-01-31T01:24:23;6.10;;;1.42;;
42632;SDS011;28261;53.304;-6.284;2023-01-31T01:26:28;2.83;;;1.25;;
42632;SDS011;28261;53.304;-6.284;2023-01-31T01:28:33;9.10;;;1.35;;
42632;SDS011;28261;53.304;-6.284;2023-01-31T01:30:37;3.70;;;1.48;;
42632;SDS011;28261;53.304;-6.284;2023-01-31T01:32:42;3.03;;;1.10;;
42632;SDS011;28261;53.304;-6.284;2023-01-31T01:34:48;6.43;;;1.27;;
42632;SDS011;28261;53.304;-6.284;2023-01-31T01:36:51;5.22;;;1.45;;
42632;SDS011;28261;53.304;-6.284;2023-01-31T01:38:54;5.50;;;1.58;;
42632;SDS011;28261;53.304;-6.284;2023-01-31T01:40:58;5.72;;;1.60;;
42632;SDS011;28261;53.304;-6.284;2023-01-31T01:43:02;6.85;;;1.15;;
42632;SDS011;28261;53.304;-6.284;2023-01-31T01:45:09;2.38;;;1.25;;
42632;SDS011;28261;53.304;-6.284;2023-01-31T01:47:20;3.47;;;1.25;;
42632;SDS011;28261;53.304;-6.284;2023-01-31T01:49:36;4.90;;;1.80;;
42632;SDS011;28261;53.304;-6.284;2023-01-31T01:51:39;6.03;;;1.92;;
42632;SDS011;28261;53.304;-6.284;2023-01-31T01:53:46;4.25;;;1.08;;
42632;SDS011;28261;53.304;-6.284;2023-01-31T01:55:53;2.70;;;1.13;;
42632;SDS011;28261;53.304;-6.284;2023-01-31T01:58:01;3.65;;;1.30;;
42632;SDS011;28261;53.304;-6.284;2023-01-31T02:00:12;3.17;;;1.30;;
42632;SDS011;28261;53.304;-6.284;2023-01-31T02:02:18;4.05;;;0.75;;
42632;SDS011;28261;53.304;-6.284;2023-01-31T02:04:24;4.60;;;1.27;;
42632;SDS011;28261;53.304;-6.284;2023-01-31T02:06:33;3.70;;;1.13;;
42632;SDS011;28261;53.304;-6.284;2023-01-31T02:08:37;2.35;;;1.30;;
42632;SDS011;28261;53.304;-6.284;2023-01-31T02:10:46;2.72;;;1.15;;
42632;SDS011;28261;53.304;-6.284;2023-01-31T02:12:52;2.92;;;1.35;;
42632;SDS011;28261;53.304;-6.284;2023-01-31T02:14:56;2.33;;;0.90;;
42632;SDS011;28261;53.304;-6.284;2023-01-31T02:16:59;3.10;;;1.10;;
42632;SDS011;28261;53.304;-6.284;2023-01-31T02:19:03;2.47;;;1.08;;
42632;SDS011;28261;53.304;-6.284;2023-01-31T02:24:10;4.22;;;0.90;;
42632;SDS011;28261;53.304;-6.284;2023-01-31T02:26:40;1.50;;;1.38;;
42632;SDS011;28261;53.304;-6.284;2023-01-31T02:29:33;4.78;;;1.30;;
42632;SDS011;28261;53.304;-6.284;2023-01-31T02:34:31;4.13;;;1.20;;
42632;SDS011;28261;53.304;-6.284;2023-01-31T02:36:41;1.88;;;0.80;;
42632;SDS011;28261;53.304;-6.284;2023-01-31T02:38:56;2.30;;;0.80;;
42632;SDS011;28261;53.304;-6.284;2023-01-31T02:41:13;1.98;;;0.80;;
42632;SDS011;28261;53.304;-6.284;2023-01-31T02:43:20;4.10;;;0.70;;
42632;SDS011;28261;53.304;-6.284;2023-01-31T02:45:30;1.48;;;0.80;;
42632;SDS011;28261;53.304;-6.284;2023-01-31T02:47:47;2.60;;;0.80;;
42632;SDS011;28261;53.304;-6.284;2023-01-31T02:50:03;1.23;;;0.70;;
42632;SDS011;28261;53.304;-6.284;2023-01-31T02:52:19;2.35;;;0.90;;
42632;SDS011;28261;53.304;-6.284;2023-01-31T02:54:33;2.63;;;0.90;;
42632;SDS011;28261;53.304;-6.284;2023-01-31T02:56:52;4.40;;;0.93;;
42632;SDS011;28261;53.304;-6.284;2023-01-31T02:58:57;0.60;;;0.52;;
42632;SDS011;28261;53.304;-6.284;2023-01-31T03:01:04;4.60;;;0.80;;
42632;SDS011;28261;53.304;-6.284;2023-01-31T03:03:16;1.92;;;0.60;;
42632;SDS011;28261;53.304;-6.284;2023-01-31T03:05:22;3.03;;;0.73;;
42632;SDS011;28261;53.304;-6.284;2023-01-31T03:07:27;2.55;;;1.20;;
42632;SDS011;28261;53.304;-6.284;2023-01-31T03:09:39;1.02;;;0.60;;
42632;SDS011;28261;53.304;-6.284;2023-01-31T03:11:50;0.65;;;0.65;;
42632;SDS011;28261;53.304;-6.284;2023-01-31T03:14:05;1.45;;;0.73;;
42632;SDS011;28261;53.304;-6.284;2023-01-31T03:16:17;1.38;;;0.68;;
42632;SDS011;28261;53.304;-6.284;2023-01-31T03:18:48;1.30;;;0.80;;
42632;SDS011;28261;53.304;-6.284;2023-01-31T03:21:00;1.77;;;0.68;;
42632;SDS011;28261;53.304;-6.284;2023-01-31T03:23:08;2.58;;;1.25;;
42632;SDS011;28261;53.304;-6.284;2023-01-31T03:25:17;1.73;;;0.50;;
42632;SDS011;28261;53.304;-6.284;2023-01-31T03:27:27;2.58;;;0.60;;
42632;SDS011;28261;53.304;-6.284;2023-01-31T03:29:33;0.55;;;0.50;;
42632;SDS011;28261;53.304;-6.284;2023-01-31T03:31:43;2.25;;;0.70;;
42632;SDS011;28261;53.304;-6.284;2023-01-31T03:33:53;2.05;;;0.40;;
42632;SDS011;28261;53.304;-6.284;2023-01-31T03:36:01;0.60;;;0.47;;
42632;SDS011;28261;53.304;-6.284;2023-01-31T03:38:13;1.00;;;1.00;;
42632;SDS011;28261;53.304;-6.284;2023-01-31T03:40:23;1.88;;;0.40;;
42632;SDS011;28261;53.304;-6.284;2023-01-31T03:42:31;1.75;;;0.43;;
42632;SDS011;28261;53.304;-6.284;2023-01-31T03:44:45;1.80;;;0.55;;
42632;SDS011;28261;53.304;-6.284;2023-01-31T03:46:58;0.80;;;0.52;;
42632;SDS011;28261;53.304;-6.284;2023-01-31T03:49:08;0.63;;;0.40;;
42632;SDS011;28261;53.304;-6.284;2023-01-31T03:51:17;1.38;;;1.00;;
42632;SDS011;28261;53.304;-6.284;2023-01-31T03:53:23;0.60;;;0.50;;
42632;SDS011;28261;53.304;-6.284;2023-01-31T03:55:32;0.45;;;0.40;;
42632;SDS011;28261;53.304;-6.284;2023-01-31T03:57:39;0.65;;;0.40;;
42632;SDS011;28261;53.304;-6.284;2023-01-31T03:59:48;1.17;;;0.38;;
42632;SDS011;28261;53.304;-6.284;2023-01-31T04:01:57;1.17;;;0.40;;
42632;SDS011;28261;53.304;-6.284;2023-01-31T04:04:04;1.70;;;0.40;;
42632;SDS011;28261;53.304;-6.284;2023-01-31T04:06:14;0.30;;;0.30;;
42632;SDS011;28261;53.304;-6.284;2023-01-31T04:08:17;0.38;;;0.30;;
42632;SDS011;28261;53.304;-6.284;2023-01-31T04:10:31;1.52;;;0.60;;
42632;SDS011;28261;53.304;-6.284;2023-01-31T04:12:35;1.70;;;0.40;;
42632;SDS011;28261;53.304;-6.284;2023-01-31T04:14:39;0.50;;;0.50;;
42632;SDS011;28261;53.304;-6.284;2023-01-31T04:16:42;0.93;;;0.50;;
42632;SDS011;28261;53.304;-6.284;2023-01-31T04:18:46;1.50;;;0.47;;
42632;SDS011;28261;53.304;-6.284;2023-01-31T04:20:51;0.63;;;0.25;;
42632;SDS011;28261;53.304;-6.284;2023-01-31T04:22:54;0.30;;;0.30;;
42632;SDS011;28261;53.304;-6.284;2023-01-31T04:24:57;1.45;;;0.40;;
42632;SDS011;28261;53.304;-6.284;2023-01-31T04:27:01;1.30;;;0.30;;
42632;SDS011;28261;53.304;-6.284;2023-01-31T04:29:04;2.58;;;0.52;;
42632;SDS011;28261;53.304;-6.284;2023-01-31T04:31:07;0.90;;;0.55;;
42632;SDS011;28261;53.304;-6.284;2023-01-31T04:33:11;8.38;;;1.35;;
42632;SDS011;28261;53.304;-6.284;2023-01-31T04:35:14;8.27;;;1.13;;
42632;SDS011;28261;53.304;-6.284;2023-01-31T04:37:20;10.68;;;1.60;;
42632;SDS011;28261;53.304;-6.284;2023-01-31T04:39:23;11.30;;;2.00;;
42632;SDS011;28261;53.304;-6.284;2023-01-31T04:41:27;12.05;;;2.35;;
42632;SDS011;28261;53.304;-6.284;2023-01-31T04:43:31;21.02;;;2.60;;
42632;SDS011;28261;53.304;-6.284;2023-01-31T04:45:34;19.88;;;3.38;;
42632;SDS011;28261;53.304;-6.284;2023-01-31T04:47:37;17.95;;;3.10;;
42632;SDS011;28261;53.304;-6.284;2023-01-31T04:49:40;18.63;;;2.60;;
42632;SDS011;28261;53.304;-6.284;2023-01-31T04:51:44;20.83;;;3.25;;
42632;SDS011;28261;53.304;-6.284;2023-01-31T04:53:49;16.15;;;2.92;;
42632;SDS011;28261;53.304;-6.284;2023-01-31T04:55:53;23.77;;;3.85;;
42632;SDS011;28261;53.304;-6.284;2023-01-31T04:57:56;14.00;;;2.33;;
42632;SDS011;28261;53.304;-6.284;2023-01-31T05:00:00;22.25;;;3.13;;
42632;SDS011;28261;53.304;-6.284;2023-01-31T05:02:03;23.98;;;2.38;;
42632;SDS011;28261;53.304;-6.284;2023-01-31T05:04:06;18.63;;;3.03;;
42632;SDS011;28261;53.304;-6.284;2023-01-31T05:06:10;20.65;;;3.15;;
42632;SDS011;28261;53.304;-6.284;2023-01-31T05:08:13;21.60;;;2.95;;
42632;SDS011;28261;53.304;-6.284;2023-01-31T05:10:18;11.82;;;2.10;;
42632;SDS011;28261;53.304;-6.284;2023-01-31T05:12:21;23.35;;;3.03;;
42632;SDS011;28261;53.304;-6.284;2023-01-31T05:14:25;27.48;;;3.42;;
42632;SDS011;28261;53.304;-6.284;2023-01-31T05:16:28;20.13;;;3.30;;
42632;SDS011;28261;53.304;-6.284;2023-01-31T05:18:33;15.27;;;2.85;;
42632;SDS011;28261;53.304;-6.284;2023-01-31T05:20:37;28.80;;;3.53;;
42632;SDS011;28261;53.304;-6.284;2023-01-31T05:22:41;22.45;;;4.10;;
42632;SDS011;28261;53.304;-6.284;2023-01-31T05:24:45;24.17;;;3.80;;
42632;SDS011;28261;53.304;-6.284;2023-01-31T05:26:49;18.42;;;2.65;;
42632;SDS011;28261;53.304;-6.284;2023-01-31T05:28:57;17.90;;;3.28;;
42632;SDS011;28261;53.304;-6.284;2023-01-31T05:31:04;31.00;;;3.42;;
42632;SDS011;28261;53.304;-6.284;2023-01-31T05:33:09;22.27;;;3.80;;
42632;SDS011;28261;53.304;-6.284;2023-01-31T05:35:13;28.60;;;3.13;;
42632;SDS011;28261;53.304;-6.284;2023-01-31T05:37:16;20.55;;;3.20;;
42632;SDS011;28261;53.304;-6.284;2023-01-31T05:39:20;22.30;;;3.30;;
42632;SDS011;28261;53.304;-6.284;2023-01-31T05:41:23;23.17;;;4.35;;
42632;SDS011;28261;53.304;-6.284;2023-01-31T05:43:28;19.95;;;2.80;;
42632;SDS011;28261;53.304;-6.284;2023-01-31T05:45:31;22.30;;;2.58;;
42632;SDS011;28261;53.304;-6.284;2023-01-31T05:47:35;20.38;;;2.70;;
42632;SDS011;28261;53.304;-6.284;2023-01-31T05:49:38;22.92;;;2.92;;
42632;SDS011;28261;53.304;-6.284;2023-01-31T05:51:42;23.90;;;2.95;;
42632;SDS011;28261;53.304;-6.284;2023-01-31T05:53:45;17.48;;;2.40;;
42632;SDS011;28261;53.304;-6.284;2023-01-31T05:55:49;22.10;;;3.15;;
42632;SDS011;28261;53.304;-6.284;2023-01-31T05:57:53;20.80;;;3.78;;
42632;SDS011;28261;53.304;-6.284;2023-01-31T05:59:58;26.17;;;3.42;;
42632;SDS011;28261;53.304;-6.284;2023-01-31T06:02:12;24.90;;;3.13;;
42632;SDS011;28261;53.304;-6.284;2023-01-31T06:04:15;21.25;;;3.22;;
42632;SDS011;28261;53.304;-6.284;2023-01-31T06:06:18;21.63;;;2.83;;
42632;SDS011;28261;53.304;-6.284;2023-01-31T06:08:22;22.65;;;4.10;;
42632;SDS011;28261;53.304;-6.284;2023-01-31T06:10:25;31.55;;;4.07;;
42632;SDS011;28261;53.304;-6.284;2023-01-31T06:12:29;28.48;;;3.80;;
42632;SDS011;28261;53.304;-6.284;2023-01-31T06:14:33;17.75;;;3.20;;
42632;SDS011;28261;53.304;-6.284;2023-01-31T06:16:38;28.17;;;4.07;;
42632;SDS011;28261;53.304;-6.284;2023-01-31T06:18:41;23.40;;;3.97;;
42632;SDS011;28261;53.304;-6.284;2023-01-31T06:20:44;18.63;;;3.38;;
42632;SDS011;28261;53.304;-6.284;2023-01-31T06:22:48;23.15;;;3.08;;
42632;SDS011;28261;53.304;-6.284;2023-01-31T06:24:51;17.63;;;3.20;;
42632;SDS011;28261;53.304;-6.284;2023-01-31T06:26:54;19.25;;;2.67;;
42632;SDS011;28261;53.304;-6.284;2023-01-31T06:28:58;23.95;;;3.35;;
42632;SDS011;28261;53.304;-6.284;2023-01-31T06:31:05;20.33;;;2.65;;
42632;SDS011;28261;53.304;-6.284;2023-01-31T06:33:10;19.27;;;3.60;;
42632;SDS011;28261;53.304;-6.284;2023-01-31T06:35:14;24.10;;;3.55;;
42632;SDS011;28261;53.304;-6.284;2023-01-31T06:37:18;29.98;;;3.42;;
42632;SDS011;28261;53.304;-6.284;2023-01-31T06:39:21;25.13;;;3.13;;
42632;SDS011;28261;53.304;-6.284;2023-01-31T06:41:24;24.60;;;3.70;;
42632;SDS011;28261;53.304;-6.284;2023-01-31T06:43:27;24.45;;;3.65;;
42632;SDS011;28261;53.304;-6.284;2023-01-31T06:45:31;18.40;;;2.78;;
42632;SDS011;28261;53.304;-6.284;2023-01-31T06:47:34;22.75;;;2.97;;
42632;SDS011;28261;53.304;-6.284;2023-01-31T06:49:39;18.77;;;3.28;;
42632;SDS011;28261;53.304;-6.284;2023-01-31T06:51:42;19.45;;;2.90;;
42632;SDS011;28261;53.304;-6.284;2023-01-31T06:53:46;22.85;;;2.88;;
42632;SDS011;28261;53.304;-6.284;2023-01-31T06:55:49;18.25;;;2.80;;
42632;SDS011;28261;53.304;-6.284;2023-01-31T06:57:52;21.73;;;3.00;;
42632;SDS011;28261;53.304;-6.284;2023-01-31T06:59:56;25.58;;;3.17;;
42632;SDS011;28261;53.304;-6.284;2023-01-31T07:01:59;19.65;;;3.28;;
42632;SDS011;28261;53.304;-6.284;2023-01-31T07:04:03;19.65;;;2.95;;
42632;SDS011;28261;53.304;-6.284;2023-01-31T07:06:08;25.60;;;3.15;;
42632;SDS011;28261;53.304;-6.284;2023-01-31T07:08:12;22.95;;;3.15;;
42632;SDS011;28261;53.304;-6.284;2023-01-31T07:10:16;18.15;;;2.97;;
42632;SDS011;28261;53.304;-6.284;2023-01-31T07:12:20;26.65;;;3.20;;
42632;SDS011;28261;53.304;-6.284;2023-01-31T07:14:23;15.93;;;2.80;;
42632;SDS011;28261;53.304;-6.284;2023-01-31T07:16:27;24.17;;;3.67;;
42632;SDS011;28261;53.304;-6.284;2023-01-31T07:18:31;17.42;;;2.65;;
42632;SDS011;28261;53.304;-6.284;2023-01-31T07:20:35;23.38;;;3.08;;
42632;SDS011;28261;53.304;-6.284;2023-01-31T07:22:39;22.70;;;3.03;;
42632;SDS011;28261;53.304;-6.284;2023-01-31T07:24:43;17.23;;;2.92;;
42632;SDS011;28261;53.304;-6.284;2023-01-31T07:26:46;24.25;;;2.72;;
42632;SDS011;28261;53.304;-6.284;2023-01-31T07:28:50;17.48;;;2.70;;
42632;SDS011;28261;53.304;-6.284;2023-01-31T07:30:54;18.13;;;2.72;;
42632;SDS011;28261;53.304;-6.284;2023-01-31T07:32:58;19.63;;;3.10;;
42632;SDS011;28261;53.304;-6.284;2023-01-31T07:35:03;12.35;;;2.60;;
42632;SDS011;28261;53.304;-6.284;2023-01-31T07:37:07;17.35;;;2.55;;
42632;SDS011;28261;53.304;-6.284;2023-01-31T07:39:11;17.58;;;2.38;;
42632;SDS011;28261;53.304;-6.284;2023-01-31T07:41:15;24.48;;;3.20;;
42632;SDS011;28261;53.304;-6.284;2023-01-31T07:43:18;17.92;;;2.75;;
42632;SDS011;28261;53.304;-6.284;2023-01-31T07:45:22;17.90;;;2.35;;
42632;SDS011;28261;53.304;-6.284;2023-01-31T07:47:25;15.70;;;2.70;;
42632;SDS011;28261;53.304;-6.284;2023-01-31T07:49:29;23.42;;;3.13;;
42632;SDS011;28261;53.304;-6.284;2023-01-31T07:51:32;22.92;;;2.80;;
42632;SDS011;28261;53.304;-6.284;2023-01-31T07:53:36;19.35;;;2.38;;
42632;SDS011;28261;53.304;-6.284;2023-01-31T07:55:44;18.48;;;2.83;;
42632;SDS011;28261;53.304;-6.284;2023-01-31T07:57:48;14.73;;;2.38;;
42632;SDS011;28261;53.304;-6.284;2023-01-31T07:59:51;29.80;;;3.28;;
42632;SDS011;28261;53.304;-6.284;2023-01-31T08:01:55;13.77;;;2.22;;
42632;SDS011;28261;53.304;-6.284;2023-01-31T08:04:16;21.02;;;2.95;;
42632;SDS011;28261;53.304;-6.284;2023-01-31T08:06:28;25.45;;;3.42;;
42632;SDS011;28261;53.304;-6.284;2023-01-31T08:08:33;28.55;;;2.80;;
42632;SDS011;28261;53.304;-6.284;2023-01-31T08:10:38;18.60;;;3.05;;
42632;SDS011;28261;53.304;-6.284;2023-01-31T08:12:44;25.35;;;3.45;;
42632;SDS011;28261;53.304;-6.284;2023-01-31T08:14:50;26.60;;;3.60;;
42632;SDS011;28261;53.304;-6.284;2023-01-31T08:16:54;14.93;;;2.80;;
42632;SDS011;28261;53.304;-6.284;2023-01-31T08:18:58;23.98;;;2.92;;
42632;SDS011;28261;53.304;-6.284;2023-01-31T08:21:02;19.02;;;3.15;;
42632;SDS011;28261;53.304;-6.284;2023-01-31T08:23:06;16.77;;;2.20;;
42632;SDS011;28261;53.304;-6.284;2023-01-31T08:25:10;21.83;;;3.45;;
42632;SDS011;28261;53.304;-6.284;2023-01-31T08:27:13;24.58;;;3.05;;
42632;SDS011;28261;53.304;-6.284;2023-01-31T08:29:18;19.20;;;3.30;;
42632;SDS011;28261;53.304;-6.284;2023-01-31T08:31:23;25.15;;;3.08;;
42632;SDS011;28261;53.304;-6.284;2023-01-31T08:33:28;20.45;;;2.38;;
42632;SDS011;28261;53.304;-6.284;2023-01-31T08:35:33;16.58;;;2.85;;
42632;SDS011;28261;53.304;-6.284;2023-01-31T08:37:39;16.55;;;2.63;;
42632;SDS011;28261;53.304;-6.284;2023-01-31T08:39:43;18.38;;;3.03;;
42632;SDS011;28261;53.304;-6.284;2023-01-31T08:41:49;12.45;;;2.50;;
42632;SDS011;28261;53.304;-6.284;2023-01-31T08:43:53;22.77;;;2.70;;
42632;SDS011;28261;53.304;-6.284;2023-01-31T08:46:01;19.73;;;3.25;;
42632;SDS011;28261;53.304;-6.284;2023-01-31T08:48:04;19.65;;;2.28;;
42632;SDS011;28261;53.304;-6.284;2023-01-31T08:50:09;22.08;;;3.88;;
42632;SDS011;28261;53.304;-6.284;2023-01-31T08:52:27;17.60;;;3.35;;
42632;SDS011;28261;53.304;-6.284;2023-01-31T08:54:36;17.90;;;2.70;;
42632;SDS011;28261;53.304;-6.284;2023-01-31T08:56:39;18.23;;;2.42;;
42632;SDS011;28261;53.304;-6.284;2023-01-31T08:58:43;17.67;;;2.42;;
42632;SDS011;28261;53.304;-6.284;2023-01-31T09:00:47;14.00;;;2.47;;
42632;SDS011;28261;53.304;-6.284;2023-01-31T09:02:53;27.42;;;3.70;;
42632;SDS011;28261;53.304;-6.284;2023-01-31T09:04:58;16.98;;;2.50;;
42632;SDS011;28261;53.304;-6.284;2023-01-31T09:07:01;19.63;;;3.17;;
42632;SDS011;28261;53.304;-6.284;2023-01-31T09:09:05;14.15;;;2.42;;
42632;SDS011;28261;53.304;-6.284;2023-01-31T09:11:09;14.23;;;2.67;;
42632;SDS011;28261;53.304;-6.284;2023-01-31T09:13:18;16.90;;;2.75;;
42632;SDS011;28261;53.304;-6.284;2023-01-31T09:15:21;20.40;;;3.50;;
42632;SDS011;28261;53.304;-6.284;2023-01-31T09:17:25;9.73;;;1.95;;
42632;SDS011;28261;53.304;-6.284;2023-01-31T09:19:30;18.40;;;3.40;;
42632;SDS011;28261;53.304;-6.284;2023-01-31T09:21:34;20.30;;;2.85;;
42632;SDS011;28261;53.304;-6.284;2023-01-31T09:23:39;17.38;;;2.47;;
42632;SDS011;28261;53.304;-6.284;2023-01-31T09:25:43;19.58;;;2.58;;
42632;SDS011;28261;53.304;-6.284;2023-01-31T09:29:54;14.55;;;2.10;;
42632;SDS011;28261;53.304;-6.284;2023-01-31T09:31:58;16.77;;;3.28;;
42632;SDS011;28261;53.304;-6.284;2023-01-31T09:34:02;14.75;;;2.63;;
42632;SDS011;28261;53.304;-6.284;2023-01-31T09:36:08;15.82;;;2.53;;
42632;SDS011;28261;53.304;-6.284;2023-01-31T09:38:14;19.90;;;2.47;;
42632;SDS011;28261;53.304;-6.284;2023-01-31T09:40:19;24.92;;;2.95;;
42632;SDS011;28261;53.304;-6.284;2023-01-31T09:42:25;22.38;;;2.40;;
42632;SDS011;28261;53.304;-6.284;2023-01-31T09:44:35;19.63;;;2.35;;
42632;SDS011;28261;53.304;-6.284;2023-01-31T09:46:43;17.65;;;3.83;;
42632;SDS011;28261;53.304;-6.284;2023-01-31T09:48:52;13.98;;;2.17;;
42632;SDS011;28261;53.304;-6.284;2023-01-31T09:50:58;17.02;;;2.65;;
42632;SDS011;28261;53.304;-6.284;2023-01-31T09:53:03;19.92;;;3.88;;
42632;SDS011;28261;53.304;-6.284;2023-01-31T09:59:29;14.85;;;2.67;;
42632;SDS011;28261;53.304;-6.284;2023-01-31T10:01:43;11.13;;;2.13;;
42632;SDS011;28261;53.304;-6.284;2023-01-31T10:03:58;16.55;;;2.58;;
42632;SDS011;28261;53.304;-6.284;2023-01-31T10:06:21;19.75;;;2.63;;
42632;SDS011;28261;53.304;-6.284;2023-01-31T10:08:33;17.50;;;2.28;;
42632;SDS011;28261;53.304;-6.284;2023-01-31T10:10:48;20.10;;;3.70;;
42632;SDS011;28261;53.304;-6.284;2023-01-31T10:12:54;18.58;;;2.80;;
42632;SDS011;28261;53.304;-6.284;2023-01-31T10:15:01;22.85;;;2.90;;
42632;SDS011;28261;53.304;-6.284;2023-01-31T10:17:09;23.67;;;2.85;;
42632;SDS011;28261;53.304;-6.284;2023-01-31T10:19:19;19.52;;;3.28;;
42632;SDS011;28261;53.304;-6.284;2023-01-31T10:21:29;22.38;;;3.03;;
42632;SDS011;28261;53.304;-6.284;2023-01-31T10:23:39;18.70;;;3.10;;
42632;SDS011;28261;53.304;-6.284;2023-01-31T10:25:49;18.15;;;2.97;;
42632;SDS011;28261;53.304;-6.284;2023-01-31T10:27:57;16.73;;;2.35;;
42632;SDS011;28261;53.304;-6.284;2023-01-31T10:30:04;14.73;;;2.42;;
42632;SDS011;28261;53.304;-6.284;2023-01-31T10:32:18;15.88;;;3.15;;
42632;SDS011;28261;53.304;-6.284;2023-01-31T10:34:28;21.23;;;2.22;;
42632;SDS011;28261;53.304;-6.284;2023-01-31T10:36:38;17.27;;;2.78;;
42632;SDS011;28261;53.304;-6.284;2023-01-31T10:38:53;20.92;;;2.70;;
42632;SDS011;28261;53.304;-6.284;2023-01-31T10:41:05;19.92;;;3.35;;
42632;SDS011;28261;53.304;-6.284;2023-01-31T10:43:15;21.75;;;4.07;;
42632;SDS011;28261;53.304;-6.284;2023-01-31T10:45:24;20.63;;;3.15;;
42632;SDS011;28261;53.304;-6.284;2023-01-31T10:47:34;17.08;;;3.75;;
42632;SDS011;28261;53.304;-6.284;2023-01-31T10:49:38;20.85;;;3.03;;
42632;SDS011;28261;53.304;-6.284;2023-01-31T10:51:47;27.52;;;2.83;;
42632;SDS011;28261;53.304;-6.284;2023-01-31T10:54:14;21.77;;;2.83;;
42632;SDS011;28261;53.304;-6.284;2023-01-31T10:56:30;15.90;;;3.10;;
42632;SDS011;28261;53.304;-6.284;2023-01-31T10:58:36;21.73;;;3.30;;
42632;SDS011;28261;53.304;-6.284;2023-01-31T11:00:40;22.88;;;3.63;;
42632;SDS011;28261;53.304;-6.284;2023-01-31T11:02:44;18.02;;;3.60;;
42632;SDS011;28261;53.304;-6.284;2023-01-31T11:04:48;25.20;;;2.83;;
42632;SDS011;28261;53.304;-6.284;2023-01-31T11:06:53;18.67;;;2.88;;
42632;SDS011;28261;53.304;-6.284;2023-01-31T11:08:57;20.55;;;2.88;;
42632;SDS011;28261;53.304;-6.284;2023-01-31T11:11:05;22.90;;;4.20;;
42632;SDS011;28261;53.304;-6.284;2023-01-31T11:13:10;21.23;;;3.53;;
42632;SDS011;28261;53.304;-6.284;2023-01-31T11:15:22;23.67;;;3.75;;
42632;SDS011;28261;53.304;-6.284;2023-01-31T11:17:29;19.38;;;2.75;;
42632;SDS011;28261;53.304;-6.284;2023-01-31T11:19:36;15.23;;;2.70;;
42632;SDS011;28261;53.304;-6.284;2023-01-31T11:21:44;27.40;;;2.67;;
42632;SDS011;28261;53.304;-6.284;2023-01-31T11:23:53;23.08;;;4.40;;
42632;SDS011;28261;53.304;-6.284;2023-01-31T11:28:15;20.17;;;3.13;;
42632;SDS011;28261;53.304;-6.284;2023-01-31T11:30:24;24.42;;;3.30;;
42632;SDS011;28261;53.304;-6.284;2023-01-31T11:32:34;19.23;;;3.42;;
42632;SDS011;28261;53.304;-6.284;2023-01-31T11:34:39;21.25;;;3.17;;
42632;SDS011;28261;53.304;-6.284;2023-01-31T11:37:04;17.08;;;2.97;;
42632;SDS011;28261;53.304;-6.284;2023-01-31T11:39:17;17.52;;;2.95;;
42632;SDS011;28261;53.304;-6.284;2023-01-31T11:41:30;20.55;;;2.88;;
42632;SDS011;28261;53.304;-6.284;2023-01-31T11:43:36;12.90;;;2.60;;
42632;SDS011;28261;53.304;-6.284;2023-01-31T11:45:42;18.50;;;3.13;;
42632;SDS011;28261;53.304;-6.284;2023-01-31T11:47:48;23.40;;;3.85;;
42632;SDS011;28261;53.304;-6.284;2023-01-31T11:49:54;14.25;;;2.55;;
42632;SDS011;28261;53.304;-6.284;2023-01-31T11:51:58;21.48;;;2.53;;
42632;SDS011;28261;53.304;-6.284;2023-01-31T11:54:04;18.50;;;3.05;;
42632;SDS011;28261;53.304;-6.284;2023-01-31T11:56:10;13.52;;;2.83;;
42632;SDS011;28261;53.304;-6.284;2023-01-31T11:58:18;19.63;;;3.28;;
42632;SDS011;28261;53.304;-6.284;2023-01-31T12:00:26;16.83;;;2.15;;
42632;SDS011;28261;53.304;-6.284;2023-01-31T12:02:34;16.23;;;2.80;;
42632;SDS011;28261;53.304;-6.284;2023-01-31T12:04:40;16.95;;;3.33;;
42632;SDS011;28261;53.304;-6.284;2023-01-31T12:06:54;13.35;;;2.50;;
42632;SDS011;28261;53.304;-6.284;2023-01-31T12:09:00;19.95;;;3.50;;
42632;SDS011;28261;53.304;-6.284;2023-01-31T12:11:17;15.43;;;2.60;;
42632;SDS011;28261;53.304;-6.284;2023-01-31T12:13:32;19.02;;;3.35;;
42632;SDS011;28261;53.304;-6.284;2023-01-31T12:15:50;16.00;;;2.47;;
42632;SDS011;28261;53.304;-6.284;2023-01-31T12:17:57;23.10;;;3.13;;
42632;SDS011;28261;53.304;-6.284;2023-01-31T12:22:35;20.25;;;2.90;;
42632;SDS011;28261;53.304;-6.284;2023-01-31T12:24:43;21.27;;;3.25;;
42632;SDS011;28261;53.304;-6.284;2023-01-31T12:26:58;19.42;;;2.72;;
42632;SDS011;28261;53.304;-6.284;2023-01-31T12:29:18;16.95;;;2.45;;
42632;SDS011;28261;53.304;-6.284;2023-01-31T12:31:37;18.48;;;2.65;;
42632;SDS011;28261;53.304;-6.284;2023-01-31T12:33:59;20.05;;;3.10;;
42632;SDS011;28261;53.304;-6.284;2023-01-31T12:36:18;18.98;;;2.88;;
42632;SDS011;28261;53.304;-6.284;2023-01-31T12:38:43;12.63;;;2.75;;
42632;SDS011;28261;53.304;-6.284;2023-01-31T12:40:58;14.20;;;2.17;;
42632;SDS011;28261;53.304;-6.284;2023-01-31T12:43:18;17.52;;;2.60;;
42632;SDS011;28261;53.304;-6.284;2023-01-31T12:45:41;18.67;;;2.67;;
42632;SDS011;28261;53.304;-6.284;2023-01-31T12:48:14;15.82;;;2.60;;
42632;SDS011;28261;53.304;-6.284;2023-01-31T12:50:29;16.42;;;2.20;;